Time;durP1;ratioP1;P1;durP2;ratioP2;P2;SDS_P1;SDS_P2;PMS_P1;PMS_P2;Temp;Humidity;BMP_temperature;BMP_pressure;BME280_temperature;BME280_humidity;BME280_pressure;Samples;Min_cycle;Max_cycle;Signal;HPM_P1;HPM_P2
2022/01/14 00:01:50;;;;;;;21.47;9.87;;;;;;;;;;5048668;28;20036;-75
2022/01/14 00:04:16;;;;;;;23.77;9.87;;;;;;;;;;5048541;28;20029;-76
2022/01/14 00:06:42;;;;;;;20.53;9.53;;;;;;;;;;5048331;28;20025;-75
2022/01/14 00:09:10;;;;;;;25.43;10.30;;;;;;;;;;5045178;28;20110;-75
2022/01/14 00:11:44;;;;;;;21.63;8.63;;;;;;;;;;5048543;28;20021;-76
2022/01/14 00:16:38;;;;;;;19.97;9.03;;;;;;;;;;5048246;28;20029;-74
2022/01/14 00:19:03;;;;;;;19.77;10.03;;;;;;;;;;5048059;28;20036;-76
2022/01/14 00:21:30;;;;;;;20.13;9.40;;;;;;;;;;5047188;28;20025;-75
2022/01/14 00:24:07;;;;;;;19.73;8.17;;;;;;;;;;5047072;28;20017;-74
2022/01/14 00:32:09;;;;;;;27.57;9.63;;;;;;;;;;5043435;28;20044;-74
2022/01/14 00:34:35;;;;;;;22.13;10.33;;;;;;;;;;5047207;28;20460;-74
2022/01/14 00:37:01;;;;;;;22.20;9.33;;;;;;;;;;5046834;28;20033;-74
2022/01/14 00:39:27;;;;;;;21.97;9.73;;;;;;;;;;5048370;28;20025;-75
2022/01/14 00:41:53;;;;;;;17.63;9.17;;;;;;;;;;5048309;28;20072;-74
2022/01/14 00:44:19;;;;;;;19.07;8.27;;;;;;;;;;5047840;28;20492;-74
2022/01/14 00:46:47;;;;;;;20.73;8.37;;;;;;;;;;5048082;28;20123;-74
2022/01/14 00:49:13;;;;;;;22.57;9.40;;;;;;;;;;5047708;28;20025;-73
2022/01/14 00:51:39;;;;;;;24.20;10.03;;;;;;;;;;5046900;28;20031;-74
2022/01/14 00:54:07;;;;;;;20.43;8.87;;;;;;;;;;5048106;28;20021;-75
2022/01/14 00:56:46;;;;;;;21.23;9.70;;;;;;;;;;5050800;28;20039;-75
2022/01/14 00:59:14;;;;;;;22.50;8.90;;;;;;;;;;5051426;28;20507;-73
2022/01/14 01:01:45;;;;;;;23.87;10.53;;;;;;;;;;5051597;28;20021;-75
2022/01/14 01:04:19;;;;;;;21.53;9.40;;;;;;;;;;5049752;28;20401;-75
2022/01/14 01:06:45;;;;;;;27.47;10.57;;;;;;;;;;5050669;28;20040;-74
2022/01/14 01:09:12;;;;;;;20.97;9.47;;;;;;;;;;5051483;28;20107;-74
2022/01/14 01:11:52;;;;;;;23.90;9.43;;;;;;;;;;5051383;28;20032;-74
2022/01/14 01:14:38;;;;;;;20.83;9.43;;;;;;;;;;5047598;28;20064;-74
2022/01/14 01:17:04;;;;;;;23.47;8.93;;;;;;;;;;5054480;28;20457;-74
2022/01/14 01:19:29;;;;;;;22.47;9.93;;;;;;;;;;5051064;28;20061;-74
2022/01/14 01:21:55;;;;;;;22.33;8.70;;;;;;;;;;5049877;28;20025;-74
2022/01/14 01:24:21;;;;;;;22.03;9.53;;;;;;;;;;5051026;28;20020;-74
2022/01/14 01:26:49;;;;;;;21.77;8.97;;;;;;;;;;5050046;28;20028;-74
2022/01/14 01:29:33;;;;;;;23.03;9.77;;;;;;;;;;5050923;28;20021;-74
2022/01/14 01:31:58;;;;;;;25.07;9.40;;;;;;;;;;5050317;28;20025;-75
2022/01/14 01:34:25;;;;;;;19.07;7.83;;;;;;;;;;5050922;28;20033;-74
2022/01/14 01:36:54;;;;;;;16.33;9.10;;;;;;;;;;5048330;28;20028;-75
2022/01/14 01:39:28;;;;;;;19.00;8.73;;;;;;;;;;5049683;28;20032;-74
2022/01/14 01:41:59;;;;;;;19.03;9.00;;;;;;;;;;5045884;28;20163;-74
2022/01/14 01:44:27;;;;;;;20.77;9.50;;;;;;;;;;5049131;28;20047;-74
2022/01/14 01:46:54;;;;;;;19.00;8.90;;;;;;;;;;5050878;28;20032;-75
2022/01/14 01:49:26;;;;;;;18.87;8.37;;;;;;;;;;5050962;28;20031;-74
2022/01/14 01:51:52;;;;;;;20.98;7.82;;;;;;;;;;5051098;28;20074;-74
2022/01/14 01:54:19;;;;;;;21.03;8.60;;;;;;;;;;5049167;28;20032;-75
2022/01/14 01:56:45;;;;;;;21.60;7.50;;;;;;;;;;5050745;28;20021;-74
2022/01/14 01:59:11;;;;;;;20.67;9.10;;;;;;;;;;5050604;28;20116;-74
2022/01/14 02:01:39;;;;;;;16.77;7.03;;;;;;;;;;5050460;28;20036;-73
2022/01/14 02:04:04;;;;;;;18.30;8.43;;;;;;;;;;5049344;28;20029;-75
2022/01/14 02:06:31;;;;;;;18.67;8.67;;;;;;;;;;5049986;28;20503;-75
2022/01/14 02:08:56;;;;;;;19.07;7.77;;;;;;;;;;5048844;28;20021;-74
2022/01/14 02:11:22;;;;;;;16.07;8.53;;;;;;;;;;5050287;28;20116;-74
2022/01/14 02:13:51;;;;;;;16.00;8.07;;;;;;;;;;5048656;28;20032;-75
2022/01/14 02:16:32;;;;;;;20.53;8.80;;;;;;;;;;5048302;28;20059;-74
2022/01/14 02:26:55;;;;;;;17.50;8.23;;;;;;;;;;5050693;28;20040;-75
2022/01/14 02:29:21;;;;;;;18.03;8.67;;;;;;;;;;5048019;28;20415;-76
2022/01/14 02:31:47;;;;;;;19.23;8.07;;;;;;;;;;5048471;28;20052;-74
2022/01/14 02:34:15;;;;;;;20.40;8.47;;;;;;;;;;5049702;28;20053;-74
2022/01/14 02:36:42;;;;;;;19.77;8.10;;;;;;;;;;5049707;28;20047;-74
2022/01/14 02:39:09;;;;;;;16.53;8.83;;;;;;;;;;5049490;28;20024;-76
2022/01/14 02:41:36;;;;;;;16.60;7.63;;;;;;;;;;5049685;28;20045;-74
2022/01/14 02:44:06;;;;;;;17.10;7.20;;;;;;;;;;5049868;28;20036;-74
2022/01/14 02:46:40;;;;;;;20.17;8.30;;;;;;;;;;5049383;28;20052;-73
2022/01/14 02:49:06;;;;;;;16.23;7.20;;;;;;;;;;5048454;28;20032;-74
2022/01/14 02:51:32;;;;;;;14.83;7.70;;;;;;;;;;5047866;28;20036;-75
2022/01/14 02:54:11;;;;;;;15.47;7.47;;;;;;;;;;5049636;28;20115;-75
2022/01/14 02:56:38;;;;;;;17.70;7.93;;;;;;;;;;5048218;28;20434;-75
2022/01/14 02:59:05;;;;;;;15.60;7.33;;;;;;;;;;5049457;28;20389;-74
2022/01/14 03:01:31;;;;;;;18.00;8.67;;;;;;;;;;5048728;28;20067;-73
2022/01/14 03:04:00;;;;;;;17.80;8.60;;;;;;;;;;5049089;28;20036;-74
2022/01/14 03:06:27;;;;;;;19.07;8.93;;;;;;;;;;5049189;28;20035;-74
2022/01/14 03:08:52;;;;;;;19.33;8.00;;;;;;;;;;5049333;28;20021;-74
2022/01/14 03:11:28;;;;;;;18.60;7.77;;;;;;;;;;5047350;28;20035;-77
2022/01/14 03:13:53;;;;;;;21.33;9.13;;;;;;;;;;5048186;28;20025;-74
2022/01/14 03:16:20;;;;;;;16.47;6.83;;;;;;;;;;5053542;28;20032;-74
2022/01/14 03:18:50;;;;;;;16.53;7.20;;;;;;;;;;5052706;28;20052;-74
2022/01/14 03:21:24;;;;;;;19.60;8.60;;;;;;;;;;5049088;28;20067;-74
2022/01/14 03:24:02;;;;;;;17.50;7.63;;;;;;;;;;5048354;28;20503;-75
2022/01/14 03:26:28;;;;;;;17.80;7.00;;;;;;;;;;5047728;28;20032;-74
2022/01/14 03:28:53;;;;;;;15.10;6.73;;;;;;;;;;5048272;28;20037;-73
2022/01/14 03:31:19;;;;;;;19.50;8.67;;;;;;;;;;5047017;28;20028;-75
2022/01/14 03:33:44;;;;;;;20.30;8.00;;;;;;;;;;5046853;28;20056;-73
2022/01/14 03:36:11;;;;;;;19.30;7.80;;;;;;;;;;5048792;28;20143;-74
2022/01/14 03:38:37;;;;;;;18.27;8.17;;;;;;;;;;5048830;28;20052;-74
2022/01/14 03:41:03;;;;;;;17.37;8.30;;;;;;;;;;5048790;28;20088;-75
2022/01/14 03:43:29;;;;;;;16.23;8.27;;;;;;;;;;5048300;28;20033;-74
2022/01/14 03:45:55;;;;;;;16.77;6.97;;;;;;;;;;5047175;28;20033;-74
2022/01/14 03:48:22;;;;;;;18.60;8.20;;;;;;;;;;5047033;28;20040;-74
2022/01/14 03:50:47;;;;;;;20.20;8.23;;;;;;;;;;5048808;28;20025;-74
2022/01/14 03:53:13;;;;;;;17.97;7.53;;;;;;;;;;5048554;28;20081;-74
2022/01/14 03:55:41;;;;;;;18.60;8.03;;;;;;;;;;5048643;28;20032;-73
2022/01/14 03:58:07;;;;;;;18.37;8.30;;;;;;;;;;5047022;28;20040;-74
2022/01/14 04:00:33;;;;;;;15.23;7.80;;;;;;;;;;5047277;28;20028;-73
2022/01/14 04:02:59;;;;;;;17.23;7.47;;;;;;;;;;5049388;28;20033;-73
2022/01/14 04:05:24;;;;;;;21.97;8.43;;;;;;;;;;5048593;28;20049;-74
2022/01/14 04:07:50;;;;;;;19.43;8.40;;;;;;;;;;5048666;28;20024;-74
2022/01/14 04:10:17;;;;;;;19.00;7.97;;;;;;;;;;5049269;28;20025;-75
2022/01/14 04:17:55;;;;;;;13.90;6.97;;;;;;;;;;5046287;28;20396;-73
2022/01/14 04:20:21;;;;;;;19.37;8.10;;;;;;;;;;5046407;28;20021;-74
2022/01/14 04:22:48;;;;;;;16.67;7.03;;;;;;;;;;5048255;28;20036;-75
2022/01/14 04:25:14;;;;;;;17.30;8.10;;;;;;;;;;5048219;28;20109;-74
2022/01/14 04:27:40;;;;;;;22.67;8.50;;;;;;;;;;5048151;28;20035;-74
2022/01/14 04:30:06;;;;;;;16.40;8.00;;;;;;;;;;5048928;28;20025;-74
2022/01/14 04:32:31;;;;;;;16.53;7.87;;;;;;;;;;5049762;28;20307;-74
2022/01/14 04:34:57;;;;;;;16.53;7.63;;;;;;;;;;5052092;28;20086;-75
2022/01/14 04:37:22;;;;;;;13.40;6.70;;;;;;;;;;5050325;28;20029;-75
2022/01/14 04:39:48;;;;;;;16.30;7.87;;;;;;;;;;5050437;28;20028;-74
2022/01/14 04:42:13;;;;;;;19.67;8.20;;;;;;;;;;5049963;28;20098;-74
2022/01/14 04:44:39;;;;;;;17.23;7.73;;;;;;;;;;5051442;28;20032;-74
2022/01/14 04:47:17;;;;;;;27.83;8.27;;;;;;;;;;5051894;28;20062;-73
2022/01/14 04:49:43;;;;;;;17.47;6.77;;;;;;;;;;5049435;28;20020;-74
2022/01/14 04:52:08;;;;;;;17.40;8.07;;;;;;;;;;5049958;28;20040;-73
2022/01/14 04:54:35;;;;;;;16.17;7.80;;;;;;;;;;5051770;28;20048;-74
2022/01/14 04:57:01;;;;;;;17.87;7.67;;;;;;;;;;5047747;28;20037;-74
2022/01/14 04:59:26;;;;;;;15.57;7.13;;;;;;;;;;5051302;28;20021;-74
2022/01/14 05:01:52;;;;;;;16.00;6.87;;;;;;;;;;5051088;28;20024;-74
2022/01/14 05:04:17;;;;;;;16.00;7.07;;;;;;;;;;5051077;28;20025;-75
2022/01/14 05:06:47;;;;;;;21.70;8.70;;;;;;;;;;5050116;28;20516;-74
2022/01/14 05:09:23;;;;;;;19.90;7.83;;;;;;;;;;5051178;28;20124;-74
2022/01/14 05:11:54;;;;;;;16.13;7.83;;;;;;;;;;5050949;28;20027;-73
2022/01/14 05:14:20;;;;;;;19.75;8.73;;;;;;;;;;5051432;28;20102;-75
2022/01/14 05:16:46;;;;;;;17.30;8.07;;;;;;;;;;5051873;28;20021;-75
2022/01/14 05:19:11;;;;;;;15.80;8.17;;;;;;;;;;5051611;28;20033;-74
2022/01/14 05:21:37;;;;;;;15.50;6.60;;;;;;;;;;5050491;28;20036;-74
2022/01/14 05:24:03;;;;;;;19.90;8.30;;;;;;;;;;5050325;28;20074;-74
2022/01/14 05:26:28;;;;;;;19.03;8.27;;;;;;;;;;5051550;28;20234;-74
2022/01/14 05:28:54;;;;;;;20.20;8.47;;;;;;;;;;5051770;28;20096;-74
2022/01/14 05:31:19;;;;;;;16.30;7.03;;;;;;;;;;5052117;28;20024;-73
2022/01/14 05:33:47;;;;;;;14.83;7.27;;;;;;;;;;5054023;28;20524;-73
2022/01/14 05:36:12;;;;;;;17.03;8.27;;;;;;;;;;5051381;28;20063;-75
2022/01/14 05:38:37;;;;;;;19.47;8.37;;;;;;;;;;5046639;28;20071;-74
2022/01/14 05:41:03;;;;;;;17.70;7.03;;;;;;;;;;5045215;28;20186;-73
2022/01/14 05:43:29;;;;;;;15.37;7.53;;;;;;;;;;5050317;28;20029;-73
2022/01/14 05:45:55;;;;;;;22.40;8.20;;;;;;;;;;5051328;28;20052;-73
2022/01/14 05:48:20;;;;;;;18.80;8.57;;;;;;;;;;5051080;28;20021;-75
2022/01/14 05:50:46;;;;;;;16.63;7.53;;;;;;;;;;5050516;28;20025;-73
2022/01/14 05:53:12;;;;;;;17.63;6.50;;;;;;;;;;5042657;28;20139;-74
2022/01/14 05:55:37;;;;;;;17.80;7.73;;;;;;;;;;5051242;28;20094;-72
2022/01/14 05:58:04;;;;;;;18.53;8.33;;;;;;;;;;5051197;28;20032;-74
2022/01/14 06:00:30;;;;;;;16.80;7.57;;;;;;;;;;5049173;28;20033;-74
2022/01/14 06:02:55;;;;;;;17.63;7.67;;;;;;;;;;5049678;28;20017;-73
2022/01/14 06:05:21;;;;;;;16.17;7.27;;;;;;;;;;5050880;28;20025;-75
2022/01/14 06:07:47;;;;;;;16.60;7.80;;;;;;;;;;5050809;28;20107;-73
2022/01/14 06:10:12;;;;;;;14.83;7.03;;;;;;;;;;5050568;28;20029;-74
2022/01/14 06:12:38;;;;;;;18.47;8.50;;;;;;;;;;5047834;28;20489;-74
2022/01/14 06:15:05;;;;;;;14.60;7.17;;;;;;;;;;5080178;28;20365;-75
2022/01/14 06:17:30;;;;;;;18.00;7.90;;;;;;;;;;5048420;28;20113;-75
2022/01/14 06:19:56;;;;;;;16.37;7.20;;;;;;;;;;5048076;28;20108;-74
2022/01/14 06:22:22;;;;;;;19.20;8.20;;;;;;;;;;5049635;28;20059;-75
2022/01/14 06:24:49;;;;;;;21.43;8.87;;;;;;;;;;5049098;28;20025;-75
2022/01/14 06:27:14;;;;;;;19.07;8.80;;;;;;;;;;5050153;28;20112;-75
2022/01/14 06:29:40;;;;;;;16.77;7.37;;;;;;;;;;5049817;28;20111;-74
2022/01/14 06:32:06;;;;;;;18.50;7.23;;;;;;;;;;5049681;28;20025;-75
2022/01/14 06:34:31;;;;;;;17.33;7.00;;;;;;;;;;5048848;28;20036;-74
2022/01/14 06:36:57;;;;;;;15.43;7.50;;;;;;;;;;5047228;28;20032;-75
2022/01/14 06:39:22;;;;;;;14.00;7.50;;;;;;;;;;5048808;28;20547;-75
2022/01/14 06:41:48;;;;;;;18.53;8.83;;;;;;;;;;5047478;28;20322;-75
2022/01/14 06:44:13;;;;;;;17.53;7.93;;;;;;;;;;5048338;28;20109;-75
2022/01/14 06:46:39;;;;;;;18.63;8.87;;;;;;;;;;5047670;28;20175;-74
2022/01/14 06:49:05;;;;;;;18.30;7.47;;;;;;;;;;5048967;28;20251;-73
2022/01/14 06:51:30;;;;;;;19.47;9.43;;;;;;;;;;5049412;28;20025;-74
2022/01/14 06:53:56;;;;;;;18.63;7.97;;;;;;;;;;5048092;28;20025;-76
2022/01/14 06:56:22;;;;;;;12.83;7.47;;;;;;;;;;5047302;28;20086;-75
2022/01/14 06:58:47;;;;;;;22.53;8.13;;;;;;;;;;5049179;28;20057;-74
2022/01/14 07:01:13;;;;;;;16.80;8.17;;;;;;;;;;5047342;28;20542;-74
2022/01/14 07:03:38;;;;;;;17.10;7.57;;;;;;;;;;5048491;28;20314;-74
2022/01/14 07:06:04;;;;;;;19.93;8.57;;;;;;;;;;5048857;28;20040;-73
2022/01/14 07:08:29;;;;;;;17.77;7.53;;;;;;;;;;5047303;28;20037;-75
2022/01/14 07:10:55;;;;;;;25.30;9.30;;;;;;;;;;5047478;28;20032;-73
2022/01/14 07:13:20;;;;;;;15.73;7.13;;;;;;;;;;5048664;28;20040;-74
2022/01/14 07:15:46;;;;;;;16.37;8.67;;;;;;;;;;5048215;28;20021;-74
2022/01/14 07:18:12;;;;;;;17.80;7.83;;;;;;;;;;5047009;28;20025;-74
2022/01/14 07:20:37;;;;;;;21.63;8.80;;;;;;;;;;5045767;28;20469;-74
2022/01/14 07:23:04;;;;;;;20.57;7.40;;;;;;;;;;5045638;28;20469;-73
2022/01/14 07:25:30;;;;;;;13.90;8.20;;;;;;;;;;5044759;28;20040;-75
2022/01/14 07:27:56;;;;;;;24.57;8.27;;;;;;;;;;5045735;28;20480;-74
2022/01/14 07:30:22;;;;;;;15.23;6.73;;;;;;;;;;5046657;28;20039;-74
2022/01/14 07:32:47;;;;;;;19.30;7.60;;;;;;;;;;5047787;28;20390;-74
2022/01/14 07:35:13;;;;;;;18.10;7.83;;;;;;;;;;5047644;28;20052;-73
2022/01/14 07:37:39;;;;;;;16.60;7.93;;;;;;;;;;5047416;28;20457;-74
2022/01/14 07:40:05;;;;;;;19.97;7.63;;;;;;;;;;5043632;28;20039;-74
2022/01/14 07:42:31;;;;;;;22.80;9.53;;;;;;;;;;5043475;28;20039;-74
2022/01/14 07:44:56;;;;;;;13.00;7.67;;;;;;;;;;5040890;28;20028;-74
2022/01/14 07:47:22;;;;;;;15.70;7.50;;;;;;;;;;5041773;28;20070;-73
2022/01/14 07:49:47;;;;;;;17.67;8.33;;;;;;;;;;5041914;28;20037;-74
2022/01/14 07:52:13;;;;;;;17.53;7.67;;;;;;;;;;5041601;28;20158;-72
2022/01/14 07:54:38;;;;;;;18.50;7.80;;;;;;;;;;5039741;28;20063;-73
2022/01/14 07:57:07;;;;;;;14.73;7.87;;;;;;;;;;5040947;28;20306;-71
2022/01/14 07:59:35;;;;;;;17.93;8.63;;;;;;;;;;5039716;28;20747;-74
2022/01/14 08:02:01;;;;;;;18.37;7.90;;;;;;;;;;5038520;28;20123;-75
2022/01/14 08:04:27;;;;;;;20.20;8.20;;;;;;;;;;5037119;28;20474;-74
2022/01/14 08:06:57;;;;;;;19.43;9.23;;;;;;;;;;5046503;28;20119;-74
2022/01/14 08:09:23;;;;;;;17.97;8.10;;;;;;;;;;5045819;28;20473;-74
2022/01/14 08:11:50;;;;;;;20.87;8.97;;;;;;;;;;5051196;28;20044;-76
2022/01/14 08:14:16;;;;;;;15.03;7.37;;;;;;;;;;5050664;28;20028;-74
2022/01/14 08:16:41;;;;;;;18.37;8.00;;;;;;;;;;5044297;28;20847;-75
2022/01/14 08:19:07;;;;;;;17.73;7.40;;;;;;;;;;5045880;28;20032;-73
2022/01/14 08:21:33;;;;;;;16.33;7.70;;;;;;;;;;5048860;28;20021;-75
2022/01/14 08:23:58;;;;;;;19.27;8.53;;;;;;;;;;5048994;28;20040;-74
2022/01/14 08:26:24;;;;;;;20.87;8.77;;;;;;;;;;5048414;28;20028;-74
2022/01/14 08:28:52;;;;;;;20.20;8.73;;;;;;;;;;5044274;28;20127;-73
2022/01/14 08:31:18;;;;;;;16.07;8.33;;;;;;;;;;5052611;28;20040;-74
2022/01/14 08:33:44;;;;;;;18.00;8.07;;;;;;;;;;5051043;28;20063;-74
2022/01/14 08:36:10;;;;;;;17.10;8.30;;;;;;;;;;5049487;28;20053;-74
2022/01/14 08:38:37;;;;;;;16.23;7.77;;;;;;;;;;5045947;28;20033;-75
2022/01/14 08:41:03;;;;;;;21.07;9.27;;;;;;;;;;5080428;28;20053;-74
2022/01/14 08:43:28;;;;;;;19.43;9.30;;;;;;;;;;5044143;28;20032;-75
2022/01/14 08:45:57;;;;;;;18.30;7.67;;;;;;;;;;5047964;28;20040;-73
2022/01/14 08:48:24;;;;;;;15.00;7.87;;;;;;;;;;5043625;28;20032;-74
2022/01/14 08:50:49;;;;;;;18.27;8.47;;;;;;;;;;5044962;28;20037;-73
2022/01/14 08:53:15;;;;;;;14.70;6.67;;;;;;;;;;5042852;28;20896;-74
2022/01/14 08:55:41;;;;;;;17.97;7.33;;;;;;;;;;5042699;28;20895;-76
2022/01/14 08:58:07;;;;;;;29.90;8.03;;;;;;;;;;5041120;28;20045;-75
2022/01/14 09:00:33;;;;;;;14.37;7.07;;;;;;;;;;5045888;28;20489;-75
2022/01/14 09:03:00;;;;;;;19.23;8.70;;;;;;;;;;5046481;28;20047;-74
2022/01/14 09:05:26;;;;;;;16.37;7.97;;;;;;;;;;5044259;28;20032;-74
2022/01/14 09:07:52;;;;;;;17.23;7.17;;;;;;;;;;5040600;28;20031;-74
2022/01/14 09:10:19;;;;;;;14.87;7.70;;;;;;;;;;5045273;28;20059;-74
2022/01/14 09:12:44;;;;;;;16.97;8.40;;;;;;;;;;5044760;28;20032;-74
2022/01/14 09:15:10;;;;;;;15.47;6.93;;;;;;;;;;5042943;28;21242;-73
2022/01/14 09:17:37;;;;;;;17.53;7.70;;;;;;;;;;5010965;28;20034;-74
2022/01/14 09:20:05;;;;;;;14.97;6.90;;;;;;;;;;5022273;28;20030;-75
2022/01/14 09:22:32;;;;;;;13.80;7.47;;;;;;;;;;5021862;28;20045;-73
2022/01/14 09:24:59;;;;;;;15.57;7.03;;;;;;;;;;5038294;28;20021;-73
2022/01/14 09:27:27;;;;;;;11.07;5.93;;;;;;;;;;5023445;28;20017;-75
2022/01/14 09:29:54;;;;;;;12.80;6.80;;;;;;;;;;5022876;28;20039;-74
2022/01/14 09:32:20;;;;;;;13.67;6.90;;;;;;;;;;5023411;28;20084;-74
2022/01/14 09:34:47;;;;;;;14.53;6.33;;;;;;;;;;5023821;28;20058;-75
2022/01/14 09:37:13;;;;;;;14.43;6.90;;;;;;;;;;5024013;28;20064;-74
2022/01/14 09:39:43;;;;;;;12.63;6.13;;;;;;;;;;5038225;28;20124;-74
2022/01/14 09:42:15;;;;;;;19.57;6.73;;;;;;;;;;5023560;28;20080;-74
2022/01/14 09:44:42;;;;;;;14.80;6.47;;;;;;;;;;5026032;28;20033;-75
2022/01/14 09:47:08;;;;;;;19.50;6.37;;;;;;;;;;5024659;28;20512;-73
2022/01/14 09:49:34;;;;;;;11.40;5.80;;;;;;;;;;5023077;28;20030;-75
2022/01/14 09:52:00;;;;;;;10.13;5.50;;;;;;;;;;5022765;28;20076;-74
2022/01/14 09:54:25;;;;;;;13.60;6.43;;;;;;;;;;5020801;28;20037;-74
2022/01/14 09:56:51;;;;;;;16.20;5.77;;;;;;;;;;5023076;28;20037;-73
2022/01/14 09:59:18;;;;;;;16.67;5.43;;;;;;;;;;5019407;28;20121;-75
2022/01/14 10:01:47;;;;;;;16.70;6.43;;;;;;;;;;5020935;28;20149;-74
2022/01/14 10:04:21;;;;;;;12.33;6.13;;;;;;;;;;5024962;28;20474;-74
2022/01/14 10:06:49;;;;;;;12.10;5.63;;;;;;;;;;5022567;28;20670;-75
2022/01/14 10:09:39;;;;;;;9.97;5.60;;;;;;;;;;5019334;28;20712;-74
2022/01/14 10:12:10;;;;;;;11.27;5.63;;;;;;;;;;5018930;28;20133;-74
2022/01/14 10:14:38;;;;;;;10.77;5.72;;;;;;;;;;5021114;28;20033;-74
2022/01/14 10:17:07;;;;;;;12.80;6.00;;;;;;;;;;5019817;28;20036;-72
2022/01/14 10:19:38;;;;;;;13.37;5.50;;;;;;;;;;5030354;28;20033;-74
2022/01/14 10:22:27;;;;;;;11.48;5.45;;;;;;;;;;5022013;28;20029;-74
2022/01/14 10:25:06;;;;;;;10.70;4.93;;;;;;;;;;5021010;28;20428;-74
2022/01/14 10:27:46;;;;;;;10.13;5.20;;;;;;;;;;5020699;28;20022;-73
2022/01/14 10:30:17;;;;;;;11.37;4.93;;;;;;;;;;5019588;28;20489;-75
2022/01/14 10:32:46;;;;;;;7.77;4.90;;;;;;;;;;5022729;28;20041;-75
2022/01/14 10:35:18;;;;;;;9.27;5.47;;;;;;;;;;5023085;28;20120;-74
2022/01/14 10:37:43;;;;;;;13.13;5.57;;;;;;;;;;5022592;28;20037;-74
2022/01/14 10:40:18;;;;;;;9.40;3.97;;;;;;;;;;5019190;28;20044;-75
2022/01/14 10:42:45;;;;;;;9.83;4.87;;;;;;;;;;5026436;28;20033;-75
2022/01/14 10:45:22;;;;;;;12.30;5.17;;;;;;;;;;5020319;28;20464;-74
2022/01/14 10:48:08;;;;;;;14.00;5.67;;;;;;;;;;5021065;28;20056;-74
2022/01/14 10:50:52;;;;;;;12.13;5.40;;;;;;;;;;5035872;28;20034;-76
2022/01/14 10:53:23;;;;;;;11.53;4.67;;;;;;;;;;5018752;28;20260;-74
2022/01/14 10:55:53;;;;;;;7.83;4.57;;;;;;;;;;5036763;28;20103;-74
2022/01/14 10:58:34;;;;;;;9.43;4.37;;;;;;;;;;5019195;28;20541;-75
2022/01/14 11:01:03;;;;;;;8.87;4.83;;;;;;;;;;5018151;28;20033;-75
2022/01/14 11:03:39;;;;;;;19.23;7.47;;;;;;;;;;5020253;28;20544;-74
2022/01/14 11:06:40;;;;;;;13.77;6.13;;;;;;;;;;5022170;28;20064;-75
2022/01/14 11:09:08;;;;;;;14.33;5.40;;;;;;;;;;5008872;28;20045;-75
2022/01/14 11:11:43;;;;;;;39.50;6.83;;;;;;;;;;5020860;28;20038;-76
2022/01/14 11:14:09;;;;;;;7.23;3.73;;;;;;;;;;5019242;28;20021;-75
2022/01/14 11:16:37;;;;;;;6.03;3.13;;;;;;;;;;5020666;28;20048;-73
2022/01/14 11:19:04;;;;;;;8.37;3.50;;;;;;;;;;5018730;28;20034;-77
2022/01/14 11:24:26;;;;;;;9.77;3.60;;;;;;;;;;5019492;28;20354;-75
2022/01/14 11:27:11;;;;;;;6.90;3.47;;;;;;;;;;5022074;28;20040;-73
2022/01/14 11:29:47;;;;;;;14.67;3.60;;;;;;;;;;5019682;28;20132;-74
2022/01/14 11:32:12;;;;;;;9.57;4.40;;;;;;;;;;5019769;28;20034;-74
2022/01/14 11:34:42;;;;;;;9.17;3.83;;;;;;;;;;5019807;28;20035;-74
2022/01/14 11:37:17;;;;;;;7.27;3.70;;;;;;;;;;5021913;28;20027;-74
2022/01/14 11:40:02;;;;;;;8.37;4.67;;;;;;;;;;5017634;28;20520;-75
2022/01/14 11:42:45;;;;;;;9.30;4.30;;;;;;;;;;5018509;28;20056;-74
2022/01/14 11:45:20;;;;;;;9.13;3.80;;;;;;;;;;5020861;28;20120;-74
2022/01/14 11:47:47;;;;;;;7.33;3.80;;;;;;;;;;5035778;28;20057;-76
2022/01/14 11:50:18;;;;;;;7.90;3.87;;;;;;;;;;5019117;28;20036;-74
2022/01/14 11:52:45;;;;;;;16.48;4.25;;;;;;;;;;5018546;28;20033;-76
2022/01/14 11:55:23;;;;;;;7.40;3.97;;;;;;;;;;5019601;28;20509;-75
2022/01/14 11:57:55;;;;;;;7.20;4.03;;;;;;;;;;5021211;28;20031;-74
2022/01/14 12:00:26;;;;;;;;;;;;;;;;;;5026135;28;20083;-76
2022/01/14 12:03:25;;;;;;;10.10;3.75;;;;;;;;;;5038461;28;19927;-73
2022/01/14 12:05:53;;;;;;;11.47;4.27;;;;;;;;;;5022658;28;20091;-74
2022/01/14 12:08:30;;;;;;;8.97;4.43;;;;;;;;;;5017231;28;20431;-74
2022/01/14 12:10:58;;;;;;;10.70;4.77;;;;;;;;;;5036261;28;20029;-74
2022/01/14 12:16:03;;;;;;;8.90;4.33;;;;;;;;;;5023858;28;20482;-74
2022/01/14 12:18:47;;;;;;;7.87;4.33;;;;;;;;;;5003600;28;20417;-75
2022/01/14 12:21:14;;;;;;;8.27;4.17;;;;;;;;;;5056947;28;20029;-75
2022/01/14 12:23:40;;;;;;;8.70;3.80;;;;;;;;;;5022051;28;20056;-73
2022/01/14 12:26:17;;;;;;;9.83;4.30;;;;;;;;;;5054218;28;20065;-75
2022/01/14 12:28:44;;;;;;;8.97;4.63;;;;;;;;;;5024268;28;20029;-75
2022/01/14 12:31:09;;;;;;;7.33;4.87;;;;;;;;;;5024626;28;20021;-75
2022/01/14 12:33:45;;;;;;;8.47;4.40;;;;;;;;;;5025288;28;20022;-77
2022/01/14 12:36:13;;;;;;;7.47;3.67;;;;;;;;;;5023721;28;20033;-75
2022/01/14 12:38:40;;;;;;;8.20;4.73;;;;;;;;;;5025213;28;20053;-73
2022/01/14 12:41:17;;;;;;;7.90;4.83;;;;;;;;;;5024234;28;20055;-74
2022/01/14 12:43:56;;;;;;;11.67;4.67;;;;;;;;;;5025619;28;20075;-74
2022/01/14 12:49:05;;;;;;;9.50;3.70;;;;;;;;;;5026421;28;20037;-74
2022/01/14 12:51:32;;;;;;;12.73;4.32;;;;;;;;;;5024912;28;20128;-73
2022/01/14 12:53:59;;;;;;;10.60;4.80;;;;;;;;;;5027882;28;20091;-75
2022/01/14 12:56:28;;;;;;;11.13;4.70;;;;;;;;;;5027455;28;20567;-75
2022/01/14 12:58:57;;;;;;;10.97;4.50;;;;;;;;;;5032342;28;20416;-74
2022/01/14 13:01:49;;;;;;;9.97;4.57;;;;;;;;;;5031115;28;21496;-74
2022/01/14 13:04:16;;;;;;;10.80;5.03;;;;;;;;;;5041490;28;20022;-74
2022/01/14 13:06:53;;;;;;;8.80;4.07;;;;;;;;;;5025583;28;20108;-73
2022/01/14 13:09:34;;;;;;;6.40;3.93;;;;;;;;;;5026736;28;20326;-75
2022/01/14 13:12:01;;;;;;;10.13;4.47;;;;;;;;;;5029993;28;20021;-74
2022/01/14 13:14:36;;;;;;;9.70;4.47;;;;;;;;;;5027847;28;20176;-74
2022/01/14 13:17:08;;;;;;;11.87;5.33;;;;;;;;;;5027320;28;20116;-74
2022/01/14 13:19:34;;;;;;;;;;;;;;;;;;5043089;28;20300;-74
2022/01/14 13:22:08;;;;;;;8.07;4.20;;;;;;;;;;5028181;28;20313;-73
2022/01/14 13:24:37;;;;;;;8.83;4.43;;;;;;;;;;5030364;28;20068;-75
2022/01/14 13:27:18;;;;;;;10.57;4.73;;;;;;;;;;5030128;28;20549;-74
2022/01/14 13:29:47;;;;;;;10.37;4.77;;;;;;;;;;5027447;28;20128;-73
2022/01/14 13:32:25;;;;;;;9.83;4.63;;;;;;;;;;5044724;28;20025;-75
2022/01/14 13:34:55;;;;;;;11.10;4.40;;;;;;;;;;5029693;28;20485;-76
2022/01/14 13:37:27;;;;;;;9.60;4.77;;;;;;;;;;5026944;28;20573;-75
2022/01/14 13:40:09;;;;;;;;;;;;;;;;;;5019141;28;20543;-74
2022/01/14 13:42:36;;;;;;;9.20;4.32;;;;;;;;;;5024490;28;20349;-74
2022/01/14 13:45:08;;;;;;;9.23;4.40;;;;;;;;;;5029745;28;20191;-75
2022/01/14 13:47:35;;;;;;;9.75;4.25;;;;;;;;;;5027114;28;20033;-75
2022/01/14 13:50:09;;;;;;;9.30;4.47;;;;;;;;;;5027258;28;20084;-75
2022/01/14 13:52:36;;;;;;;7.23;3.73;;;;;;;;;;5021498;28;20025;-75
2022/01/14 13:55:03;;;;;;;6.17;2.97;;;;;;;;;;5022308;28;21317;-75
2022/01/14 13:57:28;;;;;;;4.93;2.87;;;;;;;;;;5019443;28;20414;-75
2022/01/14 14:00:05;;;;;;;8.53;3.80;;;;;;;;;;5024865;28;20021;-75
2022/01/14 14:02:31;;;;;;;5.80;3.30;;;;;;;;;;5044931;28;20530;-74
2022/01/14 14:04:58;;;;;;;4.33;2.93;;;;;;;;;;5061839;28;20474;-75
2022/01/14 14:07:25;;;;;;;5.13;3.53;;;;;;;;;;5028691;28;20017;-76
2022/01/14 14:10:21;;;;;;;6.60;3.67;;;;;;;;;;5022905;28;20220;-75
2022/01/14 14:12:49;;;;;;;5.40;3.63;;;;;;;;;;5028602;28;20025;-76
2022/01/14 14:18:08;;;;;;;6.53;3.40;;;;;;;;;;5028499;28;20068;-74
2022/01/14 14:20:34;;;;;;;8.23;3.57;;;;;;;;;;5026069;28;20101;-74
2022/01/14 14:23:23;;;;;;;6.53;3.17;;;;;;;;;;5029219;28;20127;-75
2022/01/14 14:25:53;;;;;;;9.57;3.87;;;;;;;;;;5024143;28;20548;-74
2022/01/14 14:28:28;;;;;;;9.50;4.03;;;;;;;;;;5028666;28;20143;-74
2022/01/14 14:30:54;;;;;;;6.63;3.63;;;;;;;;;;5028124;28;20103;-75
2022/01/14 14:33:21;;;;;;;7.20;3.53;;;;;;;;;;5025611;28;20474;-76
2022/01/14 14:35:49;;;;;;;8.67;3.80;;;;;;;;;;5024818;28;20101;-75
2022/01/14 14:38:24;;;;;;;9.77;3.50;;;;;;;;;;5027199;28;20033;-75
2022/01/14 14:40:51;;;;;;;9.53;4.47;;;;;;;;;;5025357;28;20061;-74
2022/01/14 14:43:18;;;;;;;13.83;4.57;;;;;;;;;;5028082;28;20080;-75
2022/01/14 14:45:44;;;;;;;13.97;4.33;;;;;;;;;;5023023;28;20036;-74
2022/01/14 14:48:10;;;;;;;5.87;3.80;;;;;;;;;;5024888;28;20026;-75
2022/01/14 14:50:36;;;;;;;13.43;3.90;;;;;;;;;;5043471;28;20568;-74
2022/01/14 14:53:04;;;;;;;11.80;3.87;;;;;;;;;;5044266;28;20127;-74
2022/01/14 14:55:31;;;;;;;11.27;4.40;;;;;;;;;;5027605;28;20021;-74
2022/01/14 14:57:58;;;;;;;7.23;4.20;;;;;;;;;;5024488;28;20022;-74
2022/01/14 15:00:24;;;;;;;9.87;4.00;;;;;;;;;;5027312;28;20044;-74
2022/01/14 15:02:53;;;;;;;9.60;4.23;;;;;;;;;;5024897;28;20100;-73
2022/01/14 15:05:19;;;;;;;10.67;4.33;;;;;;;;;;5025715;28;20026;-74
2022/01/14 15:07:45;;;;;;;16.73;4.60;;;;;;;;;;5027054;28;20037;-74
2022/01/14 15:10:15;;;;;;;7.60;4.47;;;;;;;;;;5026089;28;20033;-75
2022/01/14 15:12:42;;;;;;;13.93;4.37;;;;;;;;;;5025956;28;20104;-77
2022/01/14 15:15:17;;;;;;;17.73;5.60;;;;;;;;;;5027302;28;20032;-75